Rockport, Massachusetts
Current Conditions -  °F | °C
As of 6:53 AM on Thursday 18 Dec 2014 (Local Time) from KBVY Reporting Station
Light Rain Light Rain  
Wind Chill: 28°   Ceiling: 800
Heat Index: 36°   Visibility: 10mi
Dew Point: 32°   Wind: 10mph
Humidity: 86%   Direction: 270°W
Pressure: 29.72"   Gusts: NA
Location:  42.66°N, 70.62°W
Report Text: KBVY 181153Z 27009KT 10SM -RA BKN008 BKN013 OVC022 02/00 A2972 RMK AO2 RAB1054 SLP060 P0001 60001 70016 T00220000 10039 20022 53009
Loading
Personal Weather Stations






























Interactive Weather Map New forecast layout! Learn more

10-Day Weather Forecast

Advertisements
Track Severe Weather on mobile